Balatonboglar, Hungary
Current Conditions -  °F | °C
As of 5:45 PM on Saturday 20 Dec 2014 (Local Time) from LHSM Reporting Station
Broken Clouds Broken Clouds  
Wind Chill: 46°   Ceiling: 20000
Heat Index: 48°   Visibility: 6mi
Dew Point: 39°   Wind: 5mph
Humidity: 71%   Direction: 130°SE
Pressure: 30.12"   Gusts: NA
Location:  46.77°N, 17.67°E
Report Text: LHSM 201545Z 13004KT 9999 FEW026 SCT083 BKN200 09/04 Q1020
Loading
Personal Weather Stations






























Interactive Weather Map New forecast layout! Learn more

10-Day Weather Forecast

Advertisements
Track Severe Weather on mobile